createdAt,value
2023-05-04T00:00:55.000Z,91
2023-05-04T00:03:01.000Z,91
2023-05-04T00:04:28.000Z,91
2023-05-04T00:06:34.000Z,91
2023-05-04T00:08:00.000Z,91
2023-05-04T00:10:06.000Z,91
2023-05-04T00:12:58.000Z,91
2023-05-04T00:14:25.000Z,90
2023-05-04T00:16:31.000Z,91
2023-05-04T00:17:57.000Z,91
2023-05-04T00:20:04.000Z,91
2023-05-04T00:21:31.000Z,91
2023-05-04T00:23:37.000Z,91
2023-05-04T00:25:03.000Z,92
2023-05-04T00:27:10.000Z,92
2023-05-04T00:28:36.000Z,92
2023-05-04T00:30:42.000Z,92
2023-05-04T00:32:09.000Z,92
2023-05-04T00:34:15.000Z,92
2023-05-04T00:35:42.000Z,92
2023-05-04T00:37:48.000Z,92
2023-05-04T00:39:14.000Z,92
2023-05-04T00:41:21.000Z,92
2023-05-04T00:42:47.000Z,92
2023-05-04T00:44:53.000Z,93
2023-05-04T00:46:20.000Z,93
2023-05-04T00:48:26.000Z,93
2023-05-04T00:51:17.000Z,93
2023-05-04T00:52:44.000Z,93
2023-05-04T00:54:50.000Z,93
2023-05-04T00:56:16.000Z,92
2023-05-04T00:58:22.000Z,93
2023-05-04T00:59:49.000Z,92
2023-05-04T01:01:55.000Z,92
2023-05-04T01:03:22.000Z,92
2023-05-04T01:05:28.000Z,92
2023-05-04T01:06:54.000Z,92
2023-05-04T01:09:01.000Z,92
2023-05-04T01:10:27.000Z,93
2023-05-04T01:12:33.000Z,93
2023-05-04T01:14:00.000Z,93
2023-05-04T01:16:06.000Z,93
2023-05-04T01:17:33.000Z,93
2023-05-04T01:19:39.000Z,93
2023-05-04T01:21:05.000Z,92
2023-05-04T01:23:11.000Z,93
2023-05-04T01:24:38.000Z,92
2023-05-04T01:26:44.000Z,93
2023-05-04T01:29:35.000Z,93
2023-05-04T01:31:02.000Z,93
2023-05-04T01:33:08.000Z,92
2023-05-04T01:34:34.000Z,93
2023-05-04T01:36:40.000Z,92
2023-05-04T01:38:07.000Z,92
2023-05-04T01:40:13.000Z,91
2023-05-04T01:41:40.000Z,93
2023-05-04T01:43:46.000Z,92
2023-05-04T01:45:12.000Z,92
2023-05-04T01:47:18.000Z,92
2023-05-04T01:48:45.000Z,93
2023-05-04T01:50:51.000Z,93
2023-05-04T01:52:18.000Z,93
2023-05-04T01:54:24.000Z,94
2023-05-04T01:55:50.000Z,94
2023-05-04T01:57:56.000Z,93
2023-05-04T01:59:23.000Z,93
2023-05-04T02:01:29.000Z,93
2023-05-04T02:02:56.000Z,93
2023-05-04T02:05:02.000Z,94
2023-05-04T02:07:53.000Z,94
2023-05-04T02:09:19.000Z,94
2023-05-04T02:11:25.000Z,94
2023-05-04T02:12:52.000Z,94
2023-05-04T02:14:58.000Z,94
2023-05-04T02:16:25.000Z,94
2023-05-04T02:18:31.000Z,94
2023-05-04T02:19:57.000Z,94
2023-05-04T02:22:03.000Z,95
2023-05-04T02:23:30.000Z,94
2023-05-04T02:25:36.000Z,94
2023-05-04T02:27:02.000Z,93
2023-05-04T02:29:09.000Z,93
2023-05-04T02:30:35.000Z,94
2023-05-04T02:32:41.000Z,94
2023-05-04T02:34:08.000Z,94
2023-05-04T02:36:14.000Z,94
2023-05-04T02:37:40.000Z,95
2023-05-04T02:39:46.000Z,94
2023-05-04T02:41:13.000Z,94
2023-05-04T02:43:19.000Z,94
2023-05-04T02:46:10.000Z,95
2023-05-04T02:47:37.000Z,94
2023-05-04T02:49:43.000Z,94
2023-05-04T02:51:10.000Z,94
2023-05-04T02:53:16.000Z,94
2023-05-04T02:54:42.000Z,94
2023-05-04T02:56:48.000Z,94
2023-05-04T02:58:15.000Z,94
2023-05-04T03:00:21.000Z,94
2023-05-04T03:01:47.000Z,93
2023-05-04T03:03:54.000Z,93
2023-05-04T03:05:20.000Z,94
2023-05-04T03:07:26.000Z,94
2023-05-04T03:08:53.000Z,94
2023-05-04T03:10:59.000Z,95
2023-05-04T03:12:26.000Z,95
2023-05-04T03:16:26.000Z,93
2023-05-04T03:20:05.000Z,94
2023-05-04T03:20:39.000Z,94
2023-05-04T03:22:06.000Z,93
2023-05-04T03:24:12.000Z,94
2023-05-04T03:26:57.000Z,94
2023-05-04T03:28:23.000Z,95
2023-05-04T03:30:30.000Z,95
2023-05-04T03:31:56.000Z,94
2023-05-04T03:34:02.000Z,94
2023-05-04T03:35:29.000Z,94
2023-05-04T03:37:35.000Z,94
2023-05-04T03:39:01.000Z,94
2023-05-04T03:41:07.000Z,94
2023-05-04T03:42:34.000Z,95
2023-05-04T03:44:40.000Z,95
2023-05-04T03:46:06.000Z,94
2023-05-04T03:48:13.000Z,94
2023-05-04T03:49:39.000Z,94
2023-05-04T03:51:45.000Z,94
2023-05-04T03:53:12.000Z,95
2023-05-04T03:55:18.000Z,95
2023-05-04T03:56:44.000Z,96
2023-05-04T03:58:51.000Z,95
2023-05-04T04:00:17.000Z,95
2023-05-04T04:02:23.000Z,95
2023-05-04T04:05:14.000Z,96
2023-05-04T04:06:41.000Z,95
2023-05-04T04:08:49.000Z,95
2023-05-04T04:10:16.000Z,96
2023-05-04T04:12:22.000Z,96
2023-05-04T04:13:48.000Z,96
2023-05-04T04:15:54.000Z,96
2023-05-04T04:17:21.000Z,97
2023-05-04T04:19:27.000Z,97
2023-05-04T04:20:54.000Z,96
2023-05-04T04:23:00.000Z,96
2023-05-04T04:24:26.000Z,96
2023-05-04T04:26:32.000Z,96
2023-05-04T04:27:59.000Z,96
2023-05-04T04:30:05.000Z,96
2023-05-04T04:31:32.000Z,96
2023-05-04T04:33:38.000Z,96
2023-05-04T04:35:05.000Z,96
2023-05-04T04:37:11.000Z,96
2023-05-04T04:38:37.000Z,97
2023-05-04T04:40:43.000Z,96
2023-05-04T04:43:34.000Z,97
2023-05-04T04:45:01.000Z,98
2023-05-04T04:47:07.000Z,97
2023-05-04T04:48:34.000Z,96
2023-05-04T04:50:40.000Z,98
2023-05-04T04:52:06.000Z,98
2023-05-04T04:54:12.000Z,98
2023-05-04T04:55:39.000Z,98
2023-05-04T04:57:45.000Z,97
2023-05-04T04:59:12.000Z,96
2023-05-04T05:01:18.000Z,97
2023-05-04T05:02:44.000Z,97
2023-05-04T05:04:50.000Z,96
2023-05-04T05:06:17.000Z,95
2023-05-04T05:08:23.000Z,96
2023-05-04T05:09:49.000Z,96
2023-05-04T05:11:56.000Z,96
2023-05-04T05:13:22.000Z,95
2023-05-04T05:15:28.000Z,97
2023-05-04T05:16:55.000Z,96
2023-05-04T05:19:01.000Z,95
2023-05-04T05:21:52.000Z,95
2023-05-04T05:23:18.000Z,96
2023-05-04T05:25:24.000Z,95
2023-05-04T05:26:51.000Z,96
2023-05-04T05:28:57.000Z,96
2023-05-04T05:30:24.000Z,96
2023-05-04T05:32:30.000Z,96
2023-05-04T05:33:56.000Z,95
2023-05-04T05:36:02.000Z,96
2023-05-04T05:37:29.000Z,96
2023-05-04T05:39:35.000Z,96
2023-05-04T05:41:02.000Z,97
2023-05-04T05:43:08.000Z,96
2023-05-04T05:44:34.000Z,96
2023-05-04T05:46:40.000Z,95
2023-05-04T05:48:07.000Z,94
2023-05-04T05:50:13.000Z,92
2023-05-04T05:51:40.000Z,94
2023-05-04T05:53:46.000Z,92
2023-05-04T05:55:12.000Z,94
2023-05-04T05:57:19.000Z,93
2023-05-04T06:00:10.000Z,92
2023-05-04T06:01:36.000Z,94
2023-05-04T06:03:42.000Z,94
2023-05-04T06:05:09.000Z,92
2023-05-04T06:07:15.000Z,92
2023-05-04T06:08:42.000Z,91
2023-05-04T06:10:48.000Z,91
2023-05-04T06:12:14.000Z,90
2023-05-04T06:14:20.000Z,91
2023-05-04T06:15:47.000Z,88
2023-05-04T06:17:53.000Z,88
2023-05-04T06:19:20.000Z,88
2023-05-04T06:21:26.000Z,88
2023-05-04T06:22:52.000Z,87
2023-05-04T06:24:59.000Z,87
2023-05-04T06:26:32.000Z,86
2023-05-04T06:28:38.000Z,86
2023-05-04T06:30:05.000Z,86
2023-05-04T06:32:11.000Z,85
2023-05-04T06:33:38.000Z,84
2023-05-04T06:35:44.000Z,84
2023-05-04T06:38:35.000Z,84
2023-05-04T06:40:05.000Z,84
2023-05-04T06:42:11.000Z,83
2023-05-04T06:43:38.000Z,83
2023-05-04T06:45:44.000Z,83
2023-05-04T06:47:11.000Z,82
2023-05-04T06:49:17.000Z,82
2023-05-04T06:50:43.000Z,82
2023-05-04T06:52:49.000Z,82
2023-05-04T06:54:16.000Z,81
2023-05-04T06:56:22.000Z,81
2023-05-04T06:57:49.000Z,81
2023-05-04T06:59:55.000Z,82
2023-05-04T07:01:22.000Z,82
2023-05-04T07:03:28.000Z,81
2023-05-04T07:04:54.000Z,81
2023-05-04T07:07:00.000Z,83
2023-05-04T07:08:27.000Z,81
2023-05-04T07:10:33.000Z,79
2023-05-04T07:12:00.000Z,79
2023-05-04T07:14:06.000Z,80
2023-05-04T07:17:00.000Z,80
2023-05-04T07:18:27.000Z,80
2023-05-04T07:20:33.000Z,79
2023-05-04T07:21:59.000Z,80
2023-05-04T07:24:05.000Z,79
2023-05-04T07:25:32.000Z,79
2023-05-04T07:27:38.000Z,78
2023-05-04T07:29:04.000Z,78
2023-05-04T07:31:10.000Z,78
2023-05-04T07:32:37.000Z,78
2023-05-04T07:34:43.000Z,80
2023-05-04T07:36:12.000Z,76
2023-05-04T07:38:19.000Z,76
2023-05-04T07:39:45.000Z,80
2023-05-04T07:41:51.000Z,77
2023-05-04T07:43:18.000Z,76
2023-05-04T07:45:24.000Z,75
2023-05-04T07:46:50.000Z,80
2023-05-04T07:48:57.000Z,76
2023-05-04T07:50:23.000Z,76
2023-05-04T07:52:29.000Z,75
2023-05-04T07:55:21.000Z,74
2023-05-04T07:56:47.000Z,74
2023-05-04T07:58:53.000Z,73
2023-05-04T08:00:20.000Z,73
2023-05-04T08:02:26.000Z,73
2023-05-04T08:03:53.000Z,72
2023-05-04T08:05:59.000Z,73
2023-05-04T08:07:25.000Z,73
2023-05-04T08:09:32.000Z,72
2023-05-04T08:10:58.000Z,73
2023-05-04T08:13:22.000Z,72
2023-05-04T08:14:48.000Z,72
2023-05-04T08:16:54.000Z,73
2023-05-04T08:18:21.000Z,71
2023-05-04T08:20:27.000Z,71
2023-05-04T08:21:53.000Z,71
2023-05-04T08:24:00.000Z,73
2023-05-04T08:25:26.000Z,72
2023-05-04T08:27:32.000Z,72
2023-05-04T08:28:59.000Z,70
2023-05-04T08:31:05.000Z,70
2023-05-04T08:33:56.000Z,69
2023-05-04T08:35:22.000Z,68
2023-05-04T08:37:28.000Z,71
2023-05-04T08:38:55.000Z,69
2023-05-04T08:41:01.000Z,69
2023-05-04T08:42:28.000Z,68
2023-05-04T08:44:34.000Z,71
2023-05-04T08:46:00.000Z,68
2023-05-04T08:48:06.000Z,70
2023-05-04T08:49:33.000Z,67
2023-05-04T08:51:39.000Z,67
2023-05-04T08:53:06.000Z,68
2023-05-04T08:55:12.000Z,67
2023-05-04T08:56:38.000Z,68
2023-05-04T08:58:44.000Z,68
2023-05-04T09:00:11.000Z,65
2023-05-04T09:02:17.000Z,66
2023-05-04T09:03:44.000Z,63
2023-05-04T09:05:50.000Z,64
2023-05-04T09:07:17.000Z,64
2023-05-04T09:09:23.000Z,62
2023-05-04T09:12:14.000Z,64
2023-05-04T09:13:40.000Z,64
2023-05-04T09:15:47.000Z,65
2023-05-04T09:17:13.000Z,64
2023-05-04T09:19:19.000Z,65
2023-05-04T09:20:46.000Z,63
2023-05-04T09:22:52.000Z,66
2023-05-04T09:24:18.000Z,61
2023-05-04T09:26:25.000Z,62
2023-05-04T09:27:51.000Z,61
2023-05-04T09:29:57.000Z,62
2023-05-04T09:31:24.000Z,63
2023-05-04T09:33:30.000Z,64
2023-05-04T09:34:56.000Z,61
2023-05-04T09:37:02.000Z,59
2023-05-04T09:38:29.000Z,60
2023-05-04T09:40:35.000Z,60
2023-05-04T09:42:02.000Z,61
2023-05-04T09:44:08.000Z,60
2023-05-04T09:45:34.000Z,60
2023-05-04T09:47:40.000Z,60
2023-05-04T09:50:32.000Z,58
2023-05-04T09:51:58.000Z,59
2023-05-04T09:54:04.000Z,60
2023-05-04T09:55:31.000Z,58
2023-05-04T09:57:37.000Z,59
2023-05-04T09:59:03.000Z,59
2023-05-04T10:01:10.000Z,58
2023-05-04T10:02:36.000Z,59
2023-05-04T10:04:42.000Z,61
2023-05-04T10:06:09.000Z,59
2023-05-04T10:08:15.000Z,59
2023-05-04T10:09:41.000Z,58
2023-05-04T10:11:48.000Z,58
2023-05-04T10:13:14.000Z,58
2023-05-04T10:15:20.000Z,58
2023-05-04T10:16:47.000Z,58
2023-05-04T10:18:53.000Z,58
2023-05-04T10:20:20.000Z,60
2023-05-04T10:22:26.000Z,57
2023-05-04T10:23:52.000Z,56
2023-05-04T10:25:58.000Z,55
2023-05-04T10:28:50.000Z,55
2023-05-04T10:30:16.000Z,54
2023-05-04T10:32:22.000Z,55
2023-05-04T10:33:49.000Z,53
2023-05-04T10:35:55.000Z,55
2023-05-04T10:37:21.000Z,54
2023-05-04T10:39:28.000Z,53
2023-05-04T10:40:54.000Z,53
2023-05-04T10:43:00.000Z,52
2023-05-04T10:44:27.000Z,55
2023-05-04T10:46:33.000Z,52
2023-05-04T10:47:59.000Z,51
2023-05-04T10:50:05.000Z,54
2023-05-04T10:51:32.000Z,49
2023-05-04T10:53:54.000Z,51
2023-05-04T10:55:21.000Z,48
2023-05-04T10:57:27.000Z,47
2023-05-04T10:58:53.000Z,50
2023-05-04T11:01:00.000Z,46
2023-05-04T11:02:26.000Z,45
2023-05-04T11:04:32.000Z,45
2023-05-04T11:07:23.000Z,44
2023-05-04T11:08:50.000Z,44
2023-05-04T11:10:56.000Z,41
2023-05-04T11:12:22.000Z,43
2023-05-04T11:14:29.000Z,43
2023-05-04T11:15:55.000Z,44
2023-05-04T11:18:01.000Z,42
2023-05-04T11:19:28.000Z,44
2023-05-04T11:21:34.000Z,44
2023-05-04T11:23:00.000Z,44
2023-05-04T11:25:07.000Z,44
2023-05-04T11:26:33.000Z,44
2023-05-04T11:28:39.000Z,45
2023-05-04T11:30:06.000Z,39
2023-05-04T11:32:12.000Z,39
2023-05-04T11:33:38.000Z,43
2023-05-04T11:35:45.000Z,41
2023-05-04T11:37:11.000Z,41
2023-05-04T11:39:17.000Z,42
2023-05-04T11:40:44.000Z,41
2023-05-04T11:42:50.000Z,38
2023-05-04T11:45:41.000Z,45
2023-05-04T11:47:08.000Z,44
2023-05-04T11:49:14.000Z,44
2023-05-04T11:50:40.000Z,42
2023-05-04T11:52:46.000Z,42
2023-05-04T11:54:13.000Z,40
2023-05-04T11:56:19.000Z,42
2023-05-04T11:57:46.000Z,42
2023-05-04T11:59:52.000Z,41
2023-05-04T12:01:18.000Z,42
2023-05-04T12:03:24.000Z,42
2023-05-04T12:05:02.000Z,43
2023-05-04T12:07:08.000Z,42
2023-05-04T12:08:34.000Z,41
2023-05-04T12:10:41.000Z,41
2023-05-04T12:12:07.000Z,41
2023-05-04T12:14:13.000Z,40
2023-05-04T12:15:40.000Z,43
2023-05-04T12:17:46.000Z,41
2023-05-04T12:19:13.000Z,39
2023-05-04T12:21:19.000Z,40
2023-05-04T12:24:10.000Z,40
2023-05-04T12:25:37.000Z,40
2023-05-04T12:28:01.000Z,42
2023-05-04T12:29:27.000Z,40
2023-05-04T12:31:33.000Z,42
2023-05-04T12:33:00.000Z,39
2023-05-04T12:35:06.000Z,41
2023-05-04T12:36:33.000Z,39
2023-05-04T12:38:39.000Z,38
2023-05-04T12:40:06.000Z,37
2023-05-04T12:42:33.000Z,38
2023-05-04T12:43:59.000Z,34
2023-05-04T12:46:06.000Z,39
2023-05-04T12:47:32.000Z,35
2023-05-04T12:49:38.000Z,36
2023-05-04T12:51:05.000Z,40
2023-05-04T12:53:11.000Z,40
2023-05-04T12:54:38.000Z,40
2023-05-04T12:56:44.000Z,41
2023-05-04T12:58:10.000Z,41
2023-05-04T13:00:17.000Z,37
2023-05-04T13:03:08.000Z,39
2023-05-04T13:04:35.000Z,38
2023-05-04T13:06:41.000Z,37
2023-05-04T13:08:07.000Z,38
2023-05-04T13:10:13.000Z,37
2023-05-04T13:11:40.000Z,36
2023-05-04T13:13:46.000Z,39
2023-05-04T13:15:12.000Z,38
2023-05-04T13:17:19.000Z,38
2023-05-04T13:18:45.000Z,35
2023-05-04T13:20:52.000Z,37
2023-05-04T13:22:18.000Z,36
2023-05-04T13:24:24.000Z,37
2023-05-04T13:25:51.000Z,35
2023-05-04T13:27:57.000Z,34
2023-05-04T13:29:24.000Z,36
2023-05-04T13:31:30.000Z,34
2023-05-04T13:32:57.000Z,34
2023-05-04T13:35:03.000Z,37
2023-05-04T13:36:30.000Z,35
2023-05-04T13:38:36.000Z,35
2023-05-04T13:41:27.000Z,34
2023-05-04T13:42:54.000Z,33
2023-05-04T13:45:00.000Z,34
2023-05-04T13:46:26.000Z,34
2023-05-04T13:48:33.000Z,34
2023-05-04T13:49:59.000Z,34
2023-05-04T13:52:05.000Z,34
2023-05-04T13:53:32.000Z,34
2023-05-04T13:55:38.000Z,34
2023-05-04T13:57:05.000Z,31
2023-05-04T13:59:11.000Z,33
2023-05-04T14:00:37.000Z,33
2023-05-04T14:02:44.000Z,33
2023-05-04T14:04:10.000Z,34
2023-05-04T14:06:16.000Z,34
2023-05-04T14:07:43.000Z,32
2023-05-04T14:09:49.000Z,33
2023-05-04T14:11:16.000Z,33
2023-05-04T14:13:22.000Z,32
2023-05-04T14:14:48.000Z,31
2023-05-04T14:16:55.000Z,32
2023-05-04T14:19:46.000Z,31
2023-05-04T14:21:12.000Z,31
2023-05-04T14:23:19.000Z,33
2023-05-04T14:24:45.000Z,32
2023-05-04T14:26:51.000Z,31
2023-05-04T14:28:18.000Z,31
2023-05-04T14:30:24.000Z,33
2023-05-04T14:31:50.000Z,31
2023-05-04T14:33:57.000Z,33
2023-05-04T14:35:23.000Z,33
2023-05-04T14:37:29.000Z,31
2023-05-04T14:38:56.000Z,31
2023-05-04T14:41:02.000Z,32
2023-05-04T14:42:29.000Z,31
2023-05-04T14:44:35.000Z,30
2023-05-04T14:46:01.000Z,29
2023-05-04T14:48:08.000Z,28
2023-05-04T14:49:34.000Z,28
2023-05-04T14:51:43.000Z,27
2023-05-04T14:53:10.000Z,29
2023-05-04T14:55:16.000Z,28
2023-05-04T14:58:07.000Z,28
2023-05-04T14:59:34.000Z,29
2023-05-04T15:01:40.000Z,29
2023-05-04T15:03:06.000Z,29
2023-05-04T15:05:13.000Z,29
2023-05-04T15:06:39.000Z,29
2023-05-04T15:08:45.000Z,28
2023-05-04T15:10:12.000Z,29
2023-05-04T15:12:18.000Z,29
2023-05-04T15:13:45.000Z,30
2023-05-04T15:15:51.000Z,29
2023-05-04T15:17:17.000Z,30
2023-05-04T15:19:26.000Z,29
2023-05-04T15:20:52.000Z,28
2023-05-04T15:22:59.000Z,27
2023-05-04T15:24:25.000Z,28
2023-05-04T15:26:31.000Z,28
2023-05-04T15:27:58.000Z,29
2023-05-04T15:30:04.000Z,29
2023-05-04T15:31:31.000Z,30
2023-05-04T15:33:37.000Z,30
2023-05-04T15:36:28.000Z,31
2023-05-04T15:37:55.000Z,29
2023-05-04T15:40:01.000Z,31
2023-05-04T15:41:29.000Z,30
2023-05-04T15:43:35.000Z,29
2023-05-04T15:45:01.000Z,29
2023-05-04T15:47:08.000Z,29
2023-05-04T15:48:34.000Z,29
2023-05-04T15:50:41.000Z,30
2023-05-04T15:52:07.000Z,27
2023-05-04T15:54:13.000Z,29
2023-05-04T15:55:40.000Z,29
2023-05-04T15:57:46.000Z,29
2023-05-04T15:59:13.000Z,28
2023-05-04T16:01:19.000Z,30
2023-05-04T16:02:46.000Z,30
2023-05-04T16:04:52.000Z,30
2023-05-04T16:06:19.000Z,29
2023-05-04T16:08:26.000Z,27
2023-05-04T16:09:52.000Z,28
2023-05-04T16:11:58.000Z,29
2023-05-04T16:14:49.000Z,28
2023-05-04T16:16:16.000Z,28
2023-05-04T16:18:22.000Z,28
2023-05-04T16:19:49.000Z,29
2023-05-04T16:21:55.000Z,29
2023-05-04T16:23:22.000Z,31
2023-05-04T16:25:28.000Z,29
2023-05-04T16:26:54.000Z,29
2023-05-04T16:29:00.000Z,28
2023-05-04T16:30:27.000Z,30
2023-05-04T16:32:33.000Z,29
2023-05-04T16:34:00.000Z,28
2023-05-04T16:36:06.000Z,29
2023-05-04T16:37:32.000Z,28
2023-05-04T16:39:39.000Z,27
2023-05-04T16:41:05.000Z,30
2023-05-04T16:43:11.000Z,31
2023-05-04T16:44:38.000Z,31
2023-05-04T16:46:44.000Z,30
2023-05-04T16:48:11.000Z,29
2023-05-04T16:50:17.000Z,30
2023-05-04T16:53:08.000Z,31
2023-05-04T16:54:35.000Z,31
2023-05-04T16:56:41.000Z,30
2023-05-04T16:58:07.000Z,31
2023-05-04T17:00:14.000Z,30
2023-05-04T17:01:40.000Z,32
2023-05-04T17:03:47.000Z,31
2023-05-04T17:05:13.000Z,32
2023-05-04T17:07:20.000Z,31
2023-05-04T17:08:46.000Z,31
2023-05-04T17:10:52.000Z,32
2023-05-04T17:12:19.000Z,32
2023-05-04T17:14:25.000Z,32
2023-05-04T17:15:52.000Z,32
2023-05-04T17:17:58.000Z,34
2023-05-04T17:19:24.000Z,34
2023-05-04T17:21:30.000Z,33
2023-05-04T17:22:57.000Z,33
2023-05-04T17:25:03.000Z,35
2023-05-04T17:26:30.000Z,33
2023-05-04T17:28:36.000Z,34
2023-05-04T17:31:27.000Z,36
2023-05-04T17:32:54.000Z,35
2023-05-04T17:35:00.000Z,36
2023-05-04T17:36:38.000Z,36
2023-05-04T17:38:44.000Z,36
2023-05-04T17:40:11.000Z,37
2023-05-04T17:42:17.000Z,37
2023-05-04T17:43:44.000Z,36
2023-05-04T17:45:50.000Z,37
2023-05-04T17:47:16.000Z,37
2023-05-04T17:49:23.000Z,37
2023-05-04T17:50:49.000Z,37
2023-05-04T17:52:55.000Z,38
2023-05-04T17:54:22.000Z,39
2023-05-04T17:56:28.000Z,39
2023-05-04T17:57:55.000Z,39
2023-05-04T18:00:01.000Z,41
2023-05-04T18:01:28.000Z,41
2023-05-04T18:03:34.000Z,42
2023-05-04T18:05:01.000Z,41
2023-05-04T18:07:07.000Z,41
2023-05-04T18:09:58.000Z,43
2023-05-04T18:11:25.000Z,44
2023-05-04T18:13:31.000Z,44
2023-05-04T18:14:57.000Z,45
2023-05-04T18:17:03.000Z,45
2023-05-04T18:18:30.000Z,46
2023-05-04T18:20:36.000Z,47
2023-05-04T18:22:02.000Z,48
2023-05-04T18:24:09.000Z,48
2023-05-04T18:25:35.000Z,48
2023-05-04T18:27:41.000Z,49
2023-05-04T18:29:08.000Z,48
2023-05-04T18:31:25.000Z,49
2023-05-04T18:32:51.000Z,50
2023-05-04T18:34:57.000Z,50
2023-05-04T18:36:24.000Z,50
2023-05-04T18:38:30.000Z,51
2023-05-04T18:39:57.000Z,51
2023-05-04T18:42:03.000Z,52
2023-05-04T18:43:29.000Z,52
2023-05-04T18:45:36.000Z,53
2023-05-04T18:48:27.000Z,54
2023-05-04T18:49:53.000Z,54
2023-05-04T18:51:59.000Z,54
2023-05-04T18:53:26.000Z,55
2023-05-04T18:55:32.000Z,55
2023-05-04T18:56:59.000Z,56
2023-05-04T18:59:05.000Z,56
2023-05-04T19:00:31.000Z,57
2023-05-04T19:02:37.000Z,58
2023-05-04T19:04:04.000Z,58
2023-05-04T19:06:10.000Z,58
2023-05-04T19:07:37.000Z,58
2023-05-04T19:09:43.000Z,58
2023-05-04T19:11:09.000Z,58
2023-05-04T19:13:15.000Z,59
2023-05-04T19:14:42.000Z,60
2023-05-04T19:16:48.000Z,60
2023-05-04T19:18:15.000Z,59
2023-05-04T19:20:21.000Z,60
2023-05-04T19:21:47.000Z,61
2023-05-04T19:23:53.000Z,61
2023-05-04T19:26:45.000Z,62
2023-05-04T19:28:11.000Z,62
2023-05-04T19:30:17.000Z,62
2023-05-04T19:31:44.000Z,61
2023-05-04T19:33:50.000Z,62
2023-05-04T19:35:17.000Z,62
2023-05-04T19:37:23.000Z,63
2023-05-04T19:38:49.000Z,63
2023-05-04T19:40:55.000Z,63
2023-05-04T19:42:22.000Z,63
2023-05-04T19:44:28.000Z,64
2023-05-04T19:45:55.000Z,62
2023-05-04T19:48:03.000Z,62
2023-05-04T19:49:29.000Z,62
2023-05-04T19:51:36.000Z,63
2023-05-04T19:53:02.000Z,63
2023-05-04T19:55:08.000Z,64
2023-05-04T19:56:35.000Z,65
2023-05-04T19:58:41.000Z,65
2023-05-04T20:00:07.000Z,65
2023-05-04T20:02:14.000Z,65
2023-05-04T20:05:05.000Z,66
2023-05-04T20:06:32.000Z,66
2023-05-04T20:08:38.000Z,67
2023-05-04T20:10:04.000Z,68
2023-05-04T20:12:11.000Z,68
2023-05-04T20:13:37.000Z,67
2023-05-04T20:15:43.000Z,67
2023-05-04T20:17:10.000Z,68
2023-05-04T20:19:16.000Z,68
2023-05-04T20:20:43.000Z,68
2023-05-04T20:22:49.000Z,68
2023-05-04T20:24:15.000Z,67
2023-05-04T20:26:21.000Z,67
2023-05-04T20:27:48.000Z,67
2023-05-04T20:29:54.000Z,67
2023-05-04T20:31:21.000Z,67
2023-05-04T20:33:27.000Z,67
2023-05-04T20:34:53.000Z,67
2023-05-04T20:36:59.000Z,68
2023-05-04T20:38:26.000Z,68
2023-05-04T20:40:32.000Z,68
2023-05-04T20:43:23.000Z,69
2023-05-04T20:44:50.000Z,69
2023-05-04T20:46:56.000Z,69
2023-05-04T20:48:23.000Z,69
2023-05-04T20:50:29.000Z,68
2023-05-04T20:51:55.000Z,69
2023-05-04T20:54:02.000Z,70
2023-05-04T20:55:28.000Z,70
2023-05-04T20:57:34.000Z,71
2023-05-04T20:59:01.000Z,71
2023-05-04T21:01:07.000Z,71
2023-05-04T21:02:34.000Z,70
2023-05-04T21:04:40.000Z,71
2023-05-04T21:06:07.000Z,70
2023-05-04T21:08:13.000Z,71
2023-05-04T21:09:40.000Z,72
2023-05-04T21:11:46.000Z,72
2023-05-04T21:13:12.000Z,72
2023-05-04T21:15:18.000Z,72
2023-05-04T21:16:45.000Z,72
2023-05-04T21:18:51.000Z,72
2023-05-04T21:21:42.000Z,73
2023-05-04T21:23:09.000Z,73
2023-05-04T21:25:15.000Z,73
2023-05-04T21:26:42.000Z,73
2023-05-04T21:28:48.000Z,73
2023-05-04T21:30:14.000Z,74
2023-05-04T21:32:21.000Z,74
2023-05-04T21:33:47.000Z,74
2023-05-04T21:35:53.000Z,74
2023-05-04T21:37:20.000Z,73
2023-05-04T21:39:26.000Z,73
2023-05-04T21:40:53.000Z,73
2023-05-04T21:42:59.000Z,74
2023-05-04T21:44:25.000Z,73
2023-05-04T21:46:31.000Z,74
2023-05-04T21:47:58.000Z,75
2023-05-04T21:50:04.000Z,76
2023-05-04T21:51:31.000Z,75
2023-05-04T21:53:37.000Z,76
2023-05-04T21:55:04.000Z,75
2023-05-04T21:57:10.000Z,76
2023-05-04T22:00:01.000Z,76
2023-05-04T22:01:28.000Z,77
2023-05-04T22:03:34.000Z,76
2023-05-04T22:05:00.000Z,77
2023-05-04T22:07:07.000Z,76
2023-05-04T22:08:33.000Z,77
2023-05-04T22:10:39.000Z,77
2023-05-04T22:12:06.000Z,78
2023-05-04T22:14:12.000Z,78
2023-05-04T22:15:38.000Z,78
2023-05-04T22:17:56.000Z,77
2023-05-04T22:19:22.000Z,78
2023-05-04T22:21:29.000Z,78
2023-05-04T22:22:55.000Z,80
2023-05-04T22:25:01.000Z,79
2023-05-04T22:26:28.000Z,79
2023-05-04T22:28:34.000Z,79
2023-05-04T22:30:01.000Z,78
2023-05-04T22:32:07.000Z,79
2023-05-04T22:33:33.000Z,79
2023-05-04T22:35:39.000Z,79
2023-05-04T22:38:31.000Z,79
2023-05-04T22:39:57.000Z,79
2023-05-04T22:42:03.000Z,79
2023-05-04T22:43:30.000Z,80
2023-05-04T22:45:36.000Z,80
2023-05-04T22:47:02.000Z,80
2023-05-04T22:49:08.000Z,80
2023-05-04T22:50:35.000Z,80
2023-05-04T22:52:41.000Z,81
2023-05-04T22:54:08.000Z,81
2023-05-04T22:56:14.000Z,80
2023-05-04T22:57:40.000Z,80
2023-05-04T22:59:46.000Z,79
2023-05-04T23:01:13.000Z,80
2023-05-04T23:03:19.000Z,81
2023-05-04T23:04:46.000Z,80
2023-05-04T23:06:52.000Z,80
2023-05-04T23:08:18.000Z,81
2023-05-04T23:10:25.000Z,81
2023-05-04T23:11:51.000Z,80
2023-05-04T23:13:57.000Z,81
2023-05-04T23:16:48.000Z,82
2023-05-04T23:18:15.000Z,81
2023-05-04T23:20:21.000Z,80
2023-05-04T23:21:48.000Z,80
2023-05-04T23:23:54.000Z,79
2023-05-04T23:25:20.000Z,80
2023-05-04T23:27:26.000Z,81
2023-05-04T23:28:53.000Z,82
2023-05-04T23:30:59.000Z,82
2023-05-04T23:32:25.000Z,82
2023-05-04T23:34:31.000Z,82
2023-05-04T23:35:58.000Z,82
2023-05-04T23:38:04.000Z,83
2023-05-04T23:39:31.000Z,83
2023-05-04T23:41:37.000Z,83
2023-05-04T23:43:03.000Z,82
2023-05-04T23:45:09.000Z,83
2023-05-04T23:46:36.000Z,83
2023-05-04T23:48:42.000Z,83
2023-05-04T23:50:09.000Z,84
2023-05-04T23:52:15.000Z,82
2023-05-04T23:55:06.000Z,82
2023-05-04T23:56:33.000Z,84
2023-05-04T23:58:39.000Z,84
